createdAt,value
2022-09-06T00:01:15.601Z,99.90
2022-09-06T00:03:44.392Z,99.90
2022-09-06T00:06:16.531Z,99.90
2022-09-06T00:08:45.109Z,99.90
2022-09-06T00:11:13.220Z,99.90
2022-09-06T00:13:40.955Z,99.90
2022-09-06T00:16:12.403Z,99.90
2022-09-06T00:18:40.167Z,99.90
2022-09-06T00:21:14.730Z,99.90
2022-09-06T00:23:42.552Z,99.90
2022-09-06T00:26:10.449Z,99.90
2022-09-06T00:28:39.052Z,99.90
2022-09-06T00:31:10.735Z,99.90
2022-09-06T00:33:39.320Z,99.90
2022-09-06T00:36:07.557Z,99.90
2022-09-06T00:38:36.265Z,99.90
2022-09-06T00:41:05.428Z,99.90
2022-09-06T00:43:33.531Z,99.90
2022-09-06T00:46:02.711Z,99.90
2022-09-06T00:48:30.530Z,99.90
2022-09-06T00:51:01.843Z,99.90
2022-09-06T00:53:32.025Z,99.90
2022-09-06T00:55:59.882Z,99.90
2022-09-06T00:58:27.809Z,99.90
2022-09-06T01:00:55.828Z,99.90
2022-09-06T01:03:27.031Z,99.90
2022-09-06T01:06:07.717Z,99.90
2022-09-06T01:08:47.683Z,99.90
2022-09-06T01:11:34.960Z,99.90
2022-09-06T01:14:14.895Z,99.90
2022-09-06T01:16:55.679Z,99.90
2022-09-06T01:19:43.090Z,99.90
2022-09-06T01:22:27.592Z,99.90
2022-09-06T01:25:15.242Z,99.90
2022-09-06T01:28:02.630Z,99.90
2022-09-06T01:30:32.105Z,99.90
2022-09-06T01:33:12.358Z,99.90
2022-09-06T01:35:53.172Z,99.90
2022-09-06T01:38:21.049Z,99.90
2022-09-06T01:40:49.672Z,99.90
2022-09-06T01:43:36.079Z,99.90
2022-09-06T01:46:26.394Z,99.90
2022-09-06T01:49:00.504Z,99.90
2022-09-06T01:51:48.952Z,99.90
2022-09-06T01:54:31.688Z,99.90
2022-09-06T02:00:16.325Z,99.90
2022-09-06T02:03:06.396Z,99.90
2022-09-06T02:05:39.223Z,99.90
2022-09-06T02:08:26.513Z,99.90
2022-09-06T02:11:00.750Z,99.90
2022-09-06T02:13:30.894Z,99.90
2022-09-06T02:16:02.449Z,99.90
2022-09-06T02:18:50.269Z,99.90
2022-09-06T02:21:19.150Z,99.90
2022-09-06T02:23:48.966Z,99.90
2022-09-06T02:26:23.960Z,99.90
2022-09-06T02:28:51.782Z,99.90
2022-09-06T02:31:28.799Z,99.90
2022-09-06T02:33:57.140Z,99.90
2022-09-06T02:36:24.992Z,99.90
2022-09-06T02:38:56.154Z,99.90
2022-09-06T02:41:25.382Z,99.90
2022-09-06T02:43:53.078Z,99.90
2022-09-06T02:46:21.055Z,99.90
2022-09-06T02:48:48.940Z,99.90
2022-09-06T02:51:16.994Z,99.90
2022-09-06T02:53:44.816Z,99.90
2022-09-06T02:56:13.065Z,99.90
2022-09-06T02:58:44.574Z,99.90
2022-09-06T03:01:12.823Z,99.90
2022-09-06T03:03:40.704Z,99.90
2022-09-06T03:06:08.785Z,99.90
2022-09-06T03:08:37.747Z,99.90
2022-09-06T03:11:05.583Z,99.90
2022-09-06T03:13:35.814Z,99.90
2022-09-06T03:16:03.545Z,99.90
2022-09-06T03:18:33.991Z,99.90
2022-09-06T03:21:01.776Z,99.90
2022-09-06T03:23:33.254Z,99.90
2022-09-06T03:26:05.082Z,99.90
2022-09-06T03:28:32.974Z,99.90
2022-09-06T03:31:00.908Z,99.90
2022-09-06T03:33:28.847Z,99.90
2022-09-06T03:35:58.132Z,99.90
2022-09-06T03:38:26.955Z,99.40
2022-09-06T03:40:55.364Z,99.90
2022-09-06T03:43:24.485Z,99.60
2022-09-06T03:45:54.560Z,98.90
2022-09-06T03:48:23.566Z,99.20
2022-09-06T03:50:52.850Z,98.90
2022-09-06T03:53:23.837Z,98.40
2022-09-06T03:55:52.653Z,98.90
2022-09-06T03:58:24.896Z,98.30
2022-09-06T04:01:00.539Z,98.30
2022-09-06T04:03:28.456Z,98.30
2022-09-06T04:05:56.192Z,98.60
2022-09-06T04:08:24.053Z,98.70
2022-09-06T04:10:54.365Z,98.60
2022-09-06T04:13:22.739Z,98.40
2022-09-06T04:15:51.967Z,98.60
2022-09-06T04:18:29.402Z,98.60
2022-09-06T04:20:57.625Z,98.80
2022-09-06T04:23:27.705Z,98.60
2022-09-06T04:26:13.620Z,98.70
2022-09-06T04:28:44.927Z,98.50
2022-09-06T04:31:12.715Z,98.50
2022-09-06T04:33:41.790Z,98.70
2022-09-06T04:36:10.952Z,99.00
2022-09-06T04:38:40.194Z,99.20
2022-09-06T04:41:08.662Z,99.10
2022-09-06T04:43:37.396Z,99.00
2022-09-06T04:46:19.820Z,98.60
2022-09-06T04:48:55.658Z,98.50
2022-09-06T04:51:49.778Z,98.70
2022-09-06T04:54:18.327Z,98.50
2022-09-06T04:56:46.962Z,98.50
2022-09-06T04:59:15.547Z,98.60
2022-09-06T05:01:44.367Z,98.10
2022-09-06T05:04:28.849Z,97.60
2022-09-06T05:07:07.379Z,98.30
2022-09-06T05:09:36.870Z,97.10
2022-09-06T05:12:05.054Z,97.20
2022-09-06T05:14:32.955Z,96.90
2022-09-06T05:17:00.922Z,96.60
2022-09-06T05:19:28.829Z,96.40
2022-09-06T05:21:56.640Z,96.70
2022-09-06T05:24:24.645Z,96.20
2022-09-06T05:26:53.317Z,95.00
2022-09-06T05:29:21.376Z,95.40
2022-09-06T05:31:49.868Z,95.90
2022-09-06T05:34:17.880Z,94.80
2022-09-06T05:36:46.699Z,96.30
2022-09-06T05:39:14.756Z,95.50
2022-09-06T05:41:42.817Z,95.00
2022-09-06T05:44:14.313Z,94.60
2022-09-06T05:46:46.788Z,94.70
2022-09-06T05:49:32.017Z,95.30
2022-09-06T05:52:04.915Z,94.70
2022-09-06T05:54:36.989Z,94.80
2022-09-06T05:57:05.249Z,94.40
2022-09-06T05:59:33.351Z,94.00
2022-09-06T06:02:07.177Z,95.60
2022-09-06T06:04:35.841Z,95.30
2022-09-06T06:07:03.866Z,94.50
2022-09-06T06:09:31.771Z,94.70
2022-09-06T06:12:00.142Z,95.50
2022-09-06T06:14:28.396Z,91.40
2022-09-06T06:17:06.712Z,92.50
2022-09-06T06:19:34.601Z,92.40
2022-09-06T06:22:02.572Z,91.40
2022-09-06T06:24:31.044Z,89.70
2022-09-06T06:26:58.924Z,90.90
2022-09-06T06:29:29.952Z,91.20
2022-09-06T06:31:58.215Z,91.70
2022-09-06T06:34:26.168Z,92.60
2022-09-06T06:36:54.038Z,91.90
2022-09-06T06:39:21.893Z,91.10
2022-09-06T06:41:52.195Z,92.60
2022-09-06T06:44:20.101Z,90.10
2022-09-06T06:46:48.935Z,90.80
2022-09-06T06:49:25.306Z,91.70
2022-09-06T06:51:53.556Z,93.20
2022-09-06T06:54:21.612Z,90.70
2022-09-06T06:56:52.585Z,90.90
2022-09-06T06:59:21.354Z,90.10
2022-09-06T07:01:51.304Z,91.00
2022-09-06T07:04:19.420Z,90.40
2022-09-06T07:12:25.923Z,91.00
2022-09-06T07:14:53.879Z,88.60
2022-09-06T07:17:21.888Z,90.70
2022-09-06T07:22:38.234Z,90.10
2022-09-06T07:25:06.745Z,90.10
2022-09-06T07:27:50.797Z,90.10
2022-09-06T07:30:20.378Z,90.20
2022-09-06T07:32:49.719Z,90.30
2022-09-06T07:35:18.090Z,90.20
2022-09-06T07:37:52.201Z,88.30
2022-09-06T07:40:21.872Z,88.50
2022-09-06T07:42:50.215Z,88.90
2022-09-06T07:45:21.319Z,90.30
2022-09-06T07:53:15.128Z,91.30
2022-09-06T07:55:45.381Z,90.50
2022-09-06T07:58:13.179Z,88.10
2022-09-06T08:00:41.691Z,91.20
2022-09-06T08:03:12.782Z,92.40
2022-09-06T08:11:16.665Z,92.40
2022-09-06T08:13:44.307Z,90.90
2022-09-06T08:16:12.860Z,89.20
2022-09-06T08:18:40.797Z,89.50
2022-09-06T08:21:13.107Z,90.30
2022-09-06T08:29:24.122Z,90.20
2022-09-06T08:31:58.112Z,90.40
2022-09-06T08:34:51.998Z,90.70
2022-09-06T08:37:24.368Z,90.10
2022-09-06T08:42:44.508Z,90.10
2022-09-06T08:45:15.911Z,87.50
2022-09-06T08:47:43.635Z,88.80
2022-09-06T08:50:12.206Z,89.50
2022-09-06T08:53:16.268Z,90.10
2022-09-06T08:55:55.327Z,88.90
2022-09-06T08:58:42.749Z,88.50
2022-09-06T09:01:17.686Z,91.10
2022-09-06T09:03:46.325Z,90.40
2022-09-06T09:06:15.023Z,89.70
2022-09-06T09:08:54.982Z,90.20
2022-09-06T09:11:24.327Z,90.20
2022-09-06T09:14:12.116Z,90.70
2022-09-06T09:16:40.267Z,90.90
2022-09-06T09:19:10.043Z,91.50
2022-09-06T09:21:39.680Z,88.90
2022-09-06T09:24:09.775Z,89.20
2022-09-06T09:26:50.642Z,88.20
2022-09-06T09:29:18.620Z,87.80
2022-09-06T09:31:53.758Z,90.10
2022-09-06T09:34:33.755Z,88.70
2022-09-06T09:40:01.781Z,87.00
2022-09-06T09:42:32.197Z,83.80
2022-09-06T09:45:01.555Z,87.20
2022-09-06T09:47:31.978Z,84.60
2022-09-06T09:50:00.668Z,86.10
2022-09-06T09:52:29.725Z,83.80
2022-09-06T09:55:01.443Z,84.30
2022-09-06T09:57:31.565Z,86.10
2022-09-06T10:00:02.455Z,86.40
2022-09-06T10:02:36.090Z,85.90
2022-09-06T10:05:20.259Z,87.30
2022-09-06T10:07:53.169Z,88.10
2022-09-06T10:10:26.736Z,88.20
2022-09-06T10:13:20.556Z,88.60
2022-09-06T10:16:12.662Z,89.30
2022-09-06T10:18:41.716Z,89.40
2022-09-06T10:21:16.509Z,89.60
2022-09-06T10:26:49.669Z,85.10
2022-09-06T10:29:21.536Z,87.90
2022-09-06T10:31:58.723Z,86.80
2022-09-06T10:34:46.111Z,89.10
2022-09-06T10:37:23.351Z,89.70
2022-09-06T10:39:57.549Z,89.90
2022-09-06T10:42:37.531Z,89.00
2022-09-06T10:45:16.398Z,88.40
2022-09-06T10:47:57.633Z,89.20
2022-09-06T10:50:44.905Z,89.80
2022-09-06T10:53:32.210Z,90.30
2022-09-06T10:56:08.987Z,90.50
2022-09-06T11:01:49.681Z,91.00
2022-09-06T11:04:25.241Z,91.00
2022-09-06T11:06:56.355Z,90.90
2022-09-06T11:09:27.250Z,91.30
2022-09-06T11:12:03.620Z,91.10
2022-09-06T11:14:31.615Z,91.10
2022-09-06T11:17:05.278Z,91.20
2022-09-06T11:19:37.806Z,91.10
2022-09-06T11:22:25.856Z,91.00
2022-09-06T11:25:06.595Z,90.70
2022-09-06T11:27:36.620Z,91.20
2022-09-06T11:30:07.184Z,91.20
2022-09-06T11:32:39.532Z,91.20
2022-09-06T11:35:11.248Z,91.10
2022-09-06T11:37:41.442Z,91.10
2022-09-06T11:40:30.390Z,90.80
2022-09-06T11:43:16.224Z,90.90
2022-09-06T11:45:52.906Z,91.30
2022-09-06T11:48:34.670Z,91.00
2022-09-06T11:51:08.523Z,91.10
2022-09-06T11:53:55.757Z,91.20
2022-09-06T11:56:38.228Z,91.10
2022-09-06T11:59:21.820Z,91.10
2022-09-06T12:02:09.119Z,91.30
2022-09-06T12:04:50.568Z,91.40
2022-09-06T12:07:18.650Z,91.60
2022-09-06T12:09:47.585Z,91.60
2022-09-06T12:12:34.856Z,91.50
2022-09-06T12:15:22.112Z,91.60
2022-09-06T12:17:50.675Z,91.70
2022-09-06T12:20:31.515Z,91.70
2022-09-06T12:22:59.201Z,91.80
2022-09-06T12:25:49.022Z,91.90
2022-09-06T12:28:25.767Z,91.90
2022-09-06T12:30:53.532Z,91.90
2022-09-06T12:33:32.052Z,91.90
2022-09-06T12:36:11.975Z,91.90
2022-09-06T12:38:39.538Z,92.10
2022-09-06T12:41:08.591Z,92.00
2022-09-06T12:43:40.306Z,91.90
2022-09-06T12:46:08.617Z,92.00
2022-09-06T12:48:41.548Z,92.10
2022-09-06T12:51:17.220Z,92.60
2022-09-06T12:53:53.016Z,92.20
2022-09-06T12:56:22.233Z,92.40
2022-09-06T12:58:50.780Z,92.40
2022-09-06T13:01:37.773Z,92.40
2022-09-06T13:04:20.232Z,92.50
2022-09-06T13:06:48.823Z,92.60
2022-09-06T13:09:18.898Z,92.70
2022-09-06T13:11:53.333Z,92.60
2022-09-06T13:14:28.531Z,92.70
2022-09-06T13:17:01.312Z,92.70
2022-09-06T13:19:47.280Z,92.80
2022-09-06T13:22:39.211Z,92.90
2022-09-06T13:25:15.266Z,92.90
2022-09-06T13:27:51.267Z,92.90
2022-09-06T13:30:32.052Z,93.00
2022-09-06T13:33:00.105Z,93.10
2022-09-06T13:35:31.666Z,93.20
2022-09-06T13:38:11.610Z,93.20
2022-09-06T13:43:42.740Z,93.40
2022-09-06T13:46:12.897Z,93.50
2022-09-06T13:48:41.833Z,93.50
2022-09-06T13:51:10.130Z,93.60
2022-09-06T13:53:37.935Z,93.60
2022-09-06T13:56:09.715Z,93.70
2022-09-06T13:58:37.491Z,93.80
2022-09-06T14:01:10.280Z,93.80
2022-09-06T14:03:41.818Z,93.90
2022-09-06T14:06:10.089Z,93.90
2022-09-06T14:09:03.243Z,94.00
2022-09-06T14:11:27.679Z,94.00
2022-09-06T14:13:56.388Z,94.20
2022-09-06T14:16:24.112Z,94.20
2022-09-06T14:18:52.449Z,94.30
2022-09-06T14:21:21.115Z,94.40
2022-09-06T14:23:51.238Z,94.40
2022-09-06T14:26:19.584Z,94.50
2022-09-06T14:28:47.341Z,94.70
2022-09-06T14:31:16.498Z,94.70
2022-09-06T14:33:45.338Z,94.80
2022-09-06T14:36:15.056Z,95.00
2022-09-06T14:38:43.918Z,95.00
2022-09-06T14:41:13.945Z,95.20
2022-09-06T14:43:43.662Z,95.30
2022-09-06T14:46:13.092Z,95.40
2022-09-06T14:48:42.446Z,95.50
2022-09-06T14:51:12.291Z,95.50
2022-09-06T14:53:43.737Z,95.60
2022-09-06T14:56:12.361Z,95.80
2022-09-06T14:58:40.482Z,95.90
2022-09-06T15:01:09.298Z,95.90
2022-09-06T15:03:37.531Z,95.90
2022-09-06T15:06:05.494Z,95.90
2022-09-06T15:08:33.299Z,96.00
2022-09-06T15:11:01.453Z,96.00
2022-09-06T15:13:29.361Z,96.10
2022-09-06T15:15:57.700Z,96.10
2022-09-06T15:18:25.625Z,96.10
2022-09-06T15:20:53.980Z,96.20
2022-09-06T15:23:25.147Z,96.20
2022-09-06T15:25:54.628Z,96.20
2022-09-06T15:28:26.315Z,96.30
2022-09-06T15:30:54.015Z,96.30
2022-09-06T15:33:21.694Z,96.50
2022-09-06T15:35:56.304Z,96.50
2022-09-06T15:38:25.018Z,96.60
2022-09-06T15:40:53.571Z,96.60
2022-09-06T15:43:22.197Z,96.70
2022-09-06T15:45:50.793Z,96.60
2022-09-06T15:48:18.583Z,96.60
2022-09-06T15:50:51.592Z,96.60
2022-09-06T15:53:20.167Z,96.50
2022-09-06T15:55:57.384Z,96.60
2022-09-06T15:58:28.376Z,96.80
2022-09-06T16:01:04.062Z,96.70
2022-09-06T16:03:32.268Z,96.90
2022-09-06T16:09:00.308Z,97.00
2022-09-06T16:11:28.847Z,97.20
2022-09-06T16:13:56.912Z,97.20
2022-09-06T16:16:24.755Z,97.30
2022-09-06T16:18:52.807Z,97.40
2022-09-06T16:21:24.908Z,97.60
2022-09-06T16:23:53.965Z,97.70
2022-09-06T16:26:22.908Z,97.90
2022-09-06T16:28:51.753Z,98.10
2022-09-06T16:31:20.283Z,98.10
2022-09-06T16:33:49.975Z,98.10
2022-09-06T16:36:19.179Z,98.10
2022-09-06T16:38:47.577Z,97.60
2022-09-06T16:41:28.379Z,97.70
2022-09-06T16:43:57.022Z,97.50
2022-09-06T16:46:25.963Z,97.40
2022-09-06T16:48:55.699Z,97.60
2022-09-06T16:51:25.952Z,97.70
2022-09-06T16:53:54.357Z,97.90
2022-09-06T16:56:23.720Z,98.00
2022-09-06T16:58:56.006Z,97.80
2022-09-06T17:01:24.833Z,97.90
2022-09-06T17:03:53.251Z,98.10
2022-09-06T17:06:21.675Z,97.90
2022-09-06T17:08:50.500Z,98.10
2022-09-06T17:11:23.713Z,98.40
2022-09-06T17:13:53.339Z,98.60
2022-09-06T17:16:33.943Z,98.80
2022-09-06T17:19:02.727Z,98.70
2022-09-06T17:21:30.501Z,98.60
2022-09-06T17:24:03.397Z,98.80
2022-09-06T17:26:32.972Z,98.90
2022-09-06T17:29:00.732Z,98.90
2022-09-06T17:31:28.867Z,99.20
2022-09-06T17:33:56.724Z,99.20
2022-09-06T17:36:26.954Z,99.50
2022-09-06T17:39:00.108Z,99.50
2022-09-06T17:41:28.870Z,99.30
2022-09-06T17:43:57.969Z,99.40
2022-09-06T17:46:28.844Z,99.40
2022-09-06T17:48:57.389Z,99.20
2022-09-06T17:51:26.371Z,99.40
2022-09-06T17:53:55.003Z,99.80
2022-09-06T17:56:23.003Z,98.80
2022-09-06T17:58:58.945Z,98.70
2022-09-06T18:01:30.538Z,99.40
2022-09-06T18:03:58.931Z,99.90
2022-09-06T18:06:28.731Z,99.40
2022-09-06T18:08:57.264Z,98.90
2022-09-06T18:11:27.551Z,98.60
2022-09-06T18:13:56.358Z,98.60
2022-09-06T18:16:24.633Z,99.00
2022-09-06T18:18:53.479Z,98.80
2022-09-06T18:21:22.099Z,99.70
2022-09-06T18:23:50.217Z,99.40
2022-09-06T18:26:18.480Z,99.40
2022-09-06T18:28:47.090Z,99.30
2022-09-06T18:31:15.914Z,99.40
2022-09-06T18:33:43.867Z,99.90
2022-09-06T18:36:13.182Z,99.90
2022-09-06T18:38:43.001Z,99.90
2022-09-06T18:41:30.981Z,99.90
2022-09-06T18:44:04.072Z,99.90
2022-09-06T18:46:34.283Z,99.70
2022-09-06T18:49:02.465Z,99.80
2022-09-06T18:51:30.593Z,99.90
2022-09-06T18:54:00.518Z,99.90
2022-09-06T18:56:28.588Z,99.90
2022-09-06T18:58:58.528Z,99.90
2022-09-06T19:01:27.126Z,99.90
2022-09-06T19:03:56.237Z,99.90
2022-09-06T19:06:24.328Z,99.90
2022-09-06T19:08:54.158Z,99.90
2022-09-06T19:11:22.570Z,99.90
2022-09-06T19:13:51.553Z,99.90
2022-09-06T19:16:21.227Z,99.90
2022-09-06T19:18:49.909Z,99.90
2022-09-06T19:21:22.370Z,99.90
2022-09-06T19:23:56.933Z,99.90
2022-09-06T19:26:25.302Z,99.90
2022-09-06T19:28:58.499Z,99.90
2022-09-06T19:31:28.686Z,99.90
2022-09-06T19:33:56.900Z,99.90
2022-09-06T19:36:25.398Z,99.90
2022-09-06T19:39:05.621Z,99.90
2022-09-06T19:41:38.277Z,99.90
2022-09-06T19:44:08.919Z,99.90
2022-09-06T19:46:37.612Z,99.90
2022-09-06T19:49:08.405Z,99.90
2022-09-06T19:51:37.006Z,99.90
2022-09-06T19:54:05.141Z,99.90
2022-09-06T19:56:35.487Z,99.90
2022-09-06T19:59:06.480Z,99.90
2022-09-06T20:01:34.877Z,99.90
2022-09-06T20:04:03.763Z,99.90
2022-09-06T20:06:31.913Z,99.90
2022-09-06T20:09:01.252Z,99.90
2022-09-06T20:11:30.135Z,99.90
2022-09-06T20:13:58.109Z,99.90
2022-09-06T20:16:26.912Z,99.90
2022-09-06T20:18:59.382Z,99.90
2022-09-06T20:21:27.827Z,99.90
2022-09-06T20:23:56.903Z,99.90
2022-09-06T20:26:25.239Z,99.90
2022-09-06T20:28:57.018Z,99.90
2022-09-06T20:31:25.396Z,99.90
2022-09-06T20:33:54.029Z,99.90
2022-09-06T20:36:21.852Z,99.90
2022-09-06T20:38:50.981Z,99.90
2022-09-06T20:41:24.138Z,99.90
2022-09-06T20:43:54.194Z,99.90
2022-09-06T20:46:22.764Z,99.90
2022-09-06T20:48:50.522Z,99.90
2022-09-06T20:51:19.569Z,99.90
2022-09-06T20:53:48.487Z,99.90
2022-09-06T20:56:17.152Z,99.90
2022-09-06T20:58:49.109Z,99.90
2022-09-06T21:01:22.910Z,99.90
2022-09-06T21:03:52.021Z,99.90
2022-09-06T21:06:21.581Z,99.90
2022-09-06T21:08:49.819Z,99.90
2022-09-06T21:11:17.565Z,99.90
2022-09-06T21:13:48.542Z,99.90
2022-09-06T21:16:18.413Z,99.90
2022-09-06T21:19:01.978Z,99.90
2022-09-06T21:21:30.416Z,99.90
2022-09-06T21:23:58.142Z,99.90
2022-09-06T21:26:25.834Z,99.90
2022-09-06T21:28:53.827Z,99.90
2022-09-06T21:31:23.326Z,99.90
2022-09-06T21:33:54.220Z,99.90
2022-09-06T21:36:23.297Z,99.90
2022-09-06T21:38:53.402Z,99.90
2022-09-06T21:41:21.136Z,99.90
2022-09-06T21:43:52.250Z,99.90
2022-09-06T21:46:20.761Z,99.90
2022-09-06T21:48:50.450Z,99.90
2022-09-06T21:51:19.401Z,99.90
2022-09-06T21:53:48.932Z,99.90
2022-09-06T21:56:19.958Z,99.90
2022-09-06T21:58:50.810Z,99.90
2022-09-06T22:01:19.413Z,99.90
2022-09-06T22:03:47.827Z,99.90
2022-09-06T22:06:16.952Z,99.90
2022-09-06T22:08:45.067Z,99.90
2022-09-06T22:11:14.155Z,99.90
2022-09-06T22:13:42.115Z,99.90
2022-09-06T22:16:11.370Z,99.90
2022-09-06T22:18:39.991Z,99.90
2022-09-06T22:21:11.171Z,99.90
2022-09-06T22:23:39.058Z,99.90
2022-09-06T22:26:08.181Z,99.90
2022-09-06T22:28:36.232Z,99.90
2022-09-06T22:31:05.148Z,99.90
2022-09-06T22:33:32.951Z,99.90
2022-09-06T22:36:00.792Z,99.90
2022-09-06T22:38:29.152Z,99.90
2022-09-06T22:40:57.622Z,99.90
2022-09-06T22:43:25.577Z,99.90
2022-09-06T22:45:53.643Z,99.90
2022-09-06T22:48:21.381Z,99.90
2022-09-06T22:50:49.197Z,99.90
2022-09-06T22:53:16.837Z,99.90
2022-09-06T22:55:47.654Z,99.90
2022-09-06T22:58:15.532Z,99.90
2022-09-06T23:00:43.370Z,99.90
2022-09-06T23:03:12.124Z,99.90
2022-09-06T23:05:39.874Z,99.90
2022-09-06T23:08:08.009Z,99.90
2022-09-06T23:10:40.731Z,99.90
2022-09-06T23:13:08.910Z,99.90
2022-09-06T23:15:37.959Z,99.90
2022-09-06T23:18:05.702Z,99.90
2022-09-06T23:20:33.457Z,99.90
2022-09-06T23:23:01.133Z,99.90
2022-09-06T23:25:29.814Z,99.90
2022-09-06T23:27:59.791Z,99.90
2022-09-06T23:30:27.565Z,99.90
2022-09-06T23:32:57.622Z,99.90
2022-09-06T23:35:25.348Z,99.90
2022-09-06T23:37:54.175Z,99.90
2022-09-06T23:40:21.949Z,99.90
2022-09-06T23:42:49.660Z,99.90
2022-09-06T23:45:17.697Z,99.90
2022-09-06T23:47:48.243Z,99.90
2022-09-06T23:50:15.925Z,99.90
2022-09-06T23:52:44.517Z,99.90
2022-09-06T23:55:13.064Z,99.90
2022-09-06T23:57:40.786Z,99.90
